sensor_id;sensor_type;location;lat;lon;timestamp;P1;durP1;ratioP1;P2;durP2;ratioP2
59998;SDS011;45859;51.378;6.736;2023-08-06T00:00:19;5.07;;;4.53;;
59998;SDS011;45859;51.378;6.736;2023-08-06T00:02:46;5.77;;;4.50;;
59998;SDS011;45859;51.378;6.736;2023-08-06T00:05:11;5.33;;;4.40;;
59998;SDS011;45859;51.378;6.736;2023-08-06T00:07:37;6.63;;;4.47;;
59998;SDS011;45859;51.378;6.736;2023-08-06T00:10:03;4.63;;;4.20;;
59998;SDS011;45859;51.378;6.736;2023-08-06T00:12:29;4.83;;;4.43;;
59998;SDS011;45859;51.378;6.736;2023-08-06T00:14:54;6.27;;;4.67;;
59998;SDS011;45859;51.378;6.736;2023-08-06T00:17:20;10.17;;;5.20;;
59998;SDS011;45859;51.378;6.736;2023-08-06T00:19:46;5.83;;;4.77;;
59998;SDS011;45859;51.378;6.736;2023-08-06T00:22:11;7.73;;;4.60;;
59998;SDS011;45859;51.378;6.736;2023-08-06T00:24:37;5.13;;;4.63;;
59998;SDS011;45859;51.378;6.736;2023-08-06T00:27:03;5.87;;;4.70;;
59998;SDS011;45859;51.378;6.736;2023-08-06T00:29:29;6.93;;;4.87;;
59998;SDS011;45859;51.378;6.736;2023-08-06T00:31:54;6.67;;;4.70;;
59998;SDS011;45859;51.378;6.736;2023-08-06T00:34:20;4.70;;;4.30;;
59998;SDS011;45859;51.378;6.736;2023-08-06T00:36:46;5.23;;;4.67;;
59998;SDS011;45859;51.378;6.736;2023-08-06T00:39:12;7.07;;;5.23;;
59998;SDS011;45859;51.378;6.736;2023-08-06T00:41:37;5.70;;;5.07;;
59998;SDS011;45859;51.378;6.736;2023-08-06T00:44:03;6.23;;;5.00;;
59998;SDS011;45859;51.378;6.736;2023-08-06T00:46:29;7.93;;;4.60;;
59998;SDS011;45859;51.378;6.736;2023-08-06T00:48:56;5.40;;;4.67;;
59998;SDS011;45859;51.378;6.736;2023-08-06T00:51:22;6.43;;;5.13;;
59998;SDS011;45859;51.378;6.736;2023-08-06T00:53:49;7.87;;;4.97;;
59998;SDS011;45859;51.378;6.736;2023-08-06T00:56:15;7.10;;;5.07;;
59998;SDS011;45859;51.378;6.736;2023-08-06T00:58:41;5.23;;;4.70;;
59998;SDS011;45859;51.378;6.736;2023-08-06T01:01:07;5.47;;;4.83;;
59998;SDS011;45859;51.378;6.736;2023-08-06T01:03:33;5.90;;;4.27;;
59998;SDS011;45859;51.378;6.736;2023-08-06T01:05:59;5.90;;;4.77;;
59998;SDS011;45859;51.378;6.736;2023-08-06T01:08:48;5.57;;;4.20;;
59998;SDS011;45859;51.378;6.736;2023-08-06T01:14:06;5.10;;;4.03;;
59998;SDS011;45859;51.378;6.736;2023-08-06T01:16:41;4.83;;;4.17;;
59998;SDS011;45859;51.378;6.736;2023-08-06T01:19:17;5.20;;;3.63;;
59998;SDS011;45859;51.378;6.736;2023-08-06T01:21:43;5.60;;;3.77;;
59998;SDS011;45859;51.378;6.736;2023-08-06T01:24:09;4.93;;;3.53;;
59998;SDS011;45859;51.378;6.736;2023-08-06T01:29:28;4.15;;;3.65;;
59998;SDS011;45859;51.378;6.736;2023-08-06T01:32:00;4.30;;;3.43;;
59998;SDS011;45859;51.378;6.736;2023-08-06T01:34:29;3.87;;;3.47;;
59998;SDS011;45859;51.378;6.736;2023-08-06T01:36:57;4.90;;;3.50;;
59998;SDS011;45859;51.378;6.736;2023-08-06T01:39:25;3.60;;;3.30;;
59998;SDS011;45859;51.378;6.736;2023-08-06T01:41:51;3.87;;;3.47;;
59998;SDS011;45859;51.378;6.736;2023-08-06T01:44:17;6.47;;;4.13;;
59998;SDS011;45859;51.378;6.736;2023-08-06T01:46:43;7.30;;;3.93;;
59998;SDS011;45859;51.378;6.736;2023-08-06T01:49:09;4.97;;;3.40;;
59998;SDS011;45859;51.378;6.736;2023-08-06T01:51:34;4.57;;;3.90;;
59998;SDS011;45859;51.378;6.736;2023-08-06T01:54:00;5.40;;;3.77;;
59998;SDS011;45859;51.378;6.736;2023-08-06T01:56:26;4.37;;;3.90;;
59998;SDS011;45859;51.378;6.736;2023-08-06T01:58:51;6.63;;;3.90;;
59998;SDS011;45859;51.378;6.736;2023-08-06T02:01:17;5.33;;;3.90;;
59998;SDS011;45859;51.378;6.736;2023-08-06T02:03:43;6.33;;;3.73;;
59998;SDS011;45859;51.378;6.736;2023-08-06T02:06:08;4.63;;;3.70;;
59998;SDS011;45859;51.378;6.736;2023-08-06T02:08:34;6.37;;;4.00;;
59998;SDS011;45859;51.378;6.736;2023-08-06T02:11:00;6.77;;;4.10;;
59998;SDS011;45859;51.378;6.736;2023-08-06T02:13:27;6.18;;;4.05;;
59998;SDS011;45859;51.378;6.736;2023-08-06T02:15:52;5.73;;;3.80;;
59998;SDS011;45859;51.378;6.736;2023-08-06T02:18:18;6.80;;;5.40;;
59998;SDS011;45859;51.378;6.736;2023-08-06T02:20:44;4.47;;;3.97;;
59998;SDS011;45859;51.378;6.736;2023-08-06T02:23:23;4.33;;;3.97;;
59998;SDS011;45859;51.378;6.736;2023-08-06T02:25:57;6.00;;;3.90;;
59998;SDS011;45859;51.378;6.736;2023-08-06T02:28:23;6.03;;;4.10;;
59998;SDS011;45859;51.378;6.736;2023-08-06T02:30:49;6.63;;;3.90;;
59998;SDS011;45859;51.378;6.736;2023-08-06T02:33:19;7.20;;;4.40;;
59998;SDS011;45859;51.378;6.736;2023-08-06T02:35:44;4.83;;;4.03;;
59998;SDS011;45859;51.378;6.736;2023-08-06T02:38:10;6.70;;;4.23;;
59998;SDS011;45859;51.378;6.736;2023-08-06T02:40:36;6.47;;;4.20;;
59998;SDS011;45859;51.378;6.736;2023-08-06T02:43:01;6.83;;;3.83;;
59998;SDS011;45859;51.378;6.736;2023-08-06T02:45:29;3.93;;;3.50;;
59998;SDS011;45859;51.378;6.736;2023-08-06T02:47:54;4.27;;;3.70;;
59998;SDS011;45859;51.378;6.736;2023-08-06T02:50:20;4.17;;;3.70;;
59998;SDS011;45859;51.378;6.736;2023-08-06T02:52:46;6.70;;;4.30;;
59998;SDS011;45859;51.378;6.736;2023-08-06T02:55:11;7.00;;;4.03;;
59998;SDS011;45859;51.378;6.736;2023-08-06T02:57:37;5.20;;;3.73;;
59998;SDS011;45859;51.378;6.736;2023-08-06T03:00:03;4.37;;;3.57;;
59998;SDS011;45859;51.378;6.736;2023-08-06T03:02:29;4.33;;;3.63;;
59998;SDS011;45859;51.378;6.736;2023-08-06T03:04:55;6.57;;;3.77;;
59998;SDS011;45859;51.378;6.736;2023-08-06T03:07:20;4.30;;;3.90;;
59998;SDS011;45859;51.378;6.736;2023-08-06T03:09:46;3.93;;;3.50;;
59998;SDS011;45859;51.378;6.736;2023-08-06T03:12:12;5.40;;;3.60;;
59998;SDS011;45859;51.378;6.736;2023-08-06T03:14:37;4.20;;;3.53;;
59998;SDS011;45859;51.378;6.736;2023-08-06T03:17:03;4.07;;;3.60;;
59998;SDS011;45859;51.378;6.736;2023-08-06T03:19:29;6.90;;;4.20;;
59998;SDS011;45859;51.378;6.736;2023-08-06T03:21:54;4.23;;;3.53;;
59998;SDS011;45859;51.378;6.736;2023-08-06T03:24:20;8.03;;;3.90;;
59998;SDS011;45859;51.378;6.736;2023-08-06T03:26:46;5.73;;;3.77;;
59998;SDS011;45859;51.378;6.736;2023-08-06T03:29:11;4.37;;;3.63;;
59998;SDS011;45859;51.378;6.736;2023-08-06T03:31:37;5.93;;;4.60;;
59998;SDS011;45859;51.378;6.736;2023-08-06T03:34:03;5.13;;;4.13;;
59998;SDS011;45859;51.378;6.736;2023-08-06T03:36:28;4.40;;;4.00;;
59998;SDS011;45859;51.378;6.736;2023-08-06T03:38:54;4.17;;;3.53;;
59998;SDS011;45859;51.378;6.736;2023-08-06T03:41:20;6.23;;;4.13;;
59998;SDS011;45859;51.378;6.736;2023-08-06T03:43:45;5.43;;;3.73;;
59998;SDS011;45859;51.378;6.736;2023-08-06T03:46:11;6.50;;;3.80;;
59998;SDS011;45859;51.378;6.736;2023-08-06T03:48:37;6.80;;;3.63;;
59998;SDS011;45859;51.378;6.736;2023-08-06T03:51:02;6.80;;;4.00;;
59998;SDS011;45859;51.378;6.736;2023-08-06T03:53:28;4.23;;;3.83;;
59998;SDS011;45859;51.378;6.736;2023-08-06T03:55:53;4.23;;;3.77;;
59998;SDS011;45859;51.378;6.736;2023-08-06T03:58:20;4.93;;;3.70;;
59998;SDS011;45859;51.378;6.736;2023-08-06T04:00:46;4.87;;;3.87;;
59998;SDS011;45859;51.378;6.736;2023-08-06T04:03:12;5.43;;;3.90;;
59998;SDS011;45859;51.378;6.736;2023-08-06T04:05:37;5.70;;;3.60;;
59998;SDS011;45859;51.378;6.736;2023-08-06T04:08:03;4.23;;;3.60;;
59998;SDS011;45859;51.378;6.736;2023-08-06T04:10:29;3.43;;;3.17;;
59998;SDS011;45859;51.378;6.736;2023-08-06T04:12:54;5.37;;;3.93;;
59998;SDS011;45859;51.378;6.736;2023-08-06T04:15:20;5.00;;;3.97;;
59998;SDS011;45859;51.378;6.736;2023-08-06T04:17:46;9.03;;;3.60;;
59998;SDS011;45859;51.378;6.736;2023-08-06T04:20:11;4.30;;;3.90;;
59998;SDS011;45859;51.378;6.736;2023-08-06T04:22:37;4.53;;;3.27;;
59998;SDS011;45859;51.378;6.736;2023-08-06T04:25:03;5.33;;;3.47;;
59998;SDS011;45859;51.378;6.736;2023-08-06T04:27:29;4.47;;;3.80;;
59998;SDS011;45859;51.378;6.736;2023-08-06T04:29:54;3.97;;;3.57;;
59998;SDS011;45859;51.378;6.736;2023-08-06T04:32:20;4.67;;;3.67;;
59998;SDS011;45859;51.378;6.736;2023-08-06T04:34:46;4.07;;;3.67;;
59998;SDS011;45859;51.378;6.736;2023-08-06T04:37:12;4.23;;;3.30;;
59998;SDS011;45859;51.378;6.736;2023-08-06T04:39:38;5.63;;;3.47;;
59998;SDS011;45859;51.378;6.736;2023-08-06T04:42:04;6.33;;;3.50;;
59998;SDS011;45859;51.378;6.736;2023-08-06T04:44:30;3.47;;;3.03;;
59998;SDS011;45859;51.378;6.736;2023-08-06T04:46:56;6.20;;;3.40;;
59998;SDS011;45859;51.378;6.736;2023-08-06T04:49:22;4.13;;;3.27;;
59998;SDS011;45859;51.378;6.736;2023-08-06T04:51:48;4.27;;;3.30;;
59998;SDS011;45859;51.378;6.736;2023-08-06T04:54:14;5.43;;;3.70;;
59998;SDS011;45859;51.378;6.736;2023-08-06T04:56:40;6.43;;;3.33;;
59998;SDS011;45859;51.378;6.736;2023-08-06T04:59:05;3.77;;;3.27;;
59998;SDS011;45859;51.378;6.736;2023-08-06T05:01:31;4.73;;;3.43;;
59998;SDS011;45859;51.378;6.736;2023-08-06T05:03:57;6.60;;;3.60;;
59998;SDS011;45859;51.378;6.736;2023-08-06T05:06:23;5.77;;;4.10;;
59998;SDS011;45859;51.378;6.736;2023-08-06T05:08:48;5.20;;;3.93;;
59998;SDS011;45859;51.378;6.736;2023-08-06T05:11:14;4.70;;;4.23;;
59998;SDS011;45859;51.378;6.736;2023-08-06T05:13:40;4.10;;;3.70;;
59998;SDS011;45859;51.378;6.736;2023-08-06T05:16:05;5.80;;;4.10;;
59998;SDS011;45859;51.378;6.736;2023-08-06T05:18:31;4.93;;;3.90;;
59998;SDS011;45859;51.378;6.736;2023-08-06T05:20:59;5.80;;;4.10;;
59998;SDS011;45859;51.378;6.736;2023-08-06T05:23:25;5.00;;;3.40;;
59998;SDS011;45859;51.378;6.736;2023-08-06T05:25:50;5.83;;;3.53;;
59998;SDS011;45859;51.378;6.736;2023-08-06T05:28:16;5.73;;;3.40;;
59998;SDS011;45859;51.378;6.736;2023-08-06T05:30:42;5.27;;;2.87;;
59998;SDS011;45859;51.378;6.736;2023-08-06T05:33:07;6.43;;;3.40;;
59998;SDS011;45859;51.378;6.736;2023-08-06T05:35:33;4.07;;;3.42;;
59998;SDS011;45859;51.378;6.736;2023-08-06T05:37:59;5.17;;;3.10;;
59998;SDS011;45859;51.378;6.736;2023-08-06T05:40:25;4.00;;;3.33;;
59998;SDS011;45859;51.378;6.736;2023-08-06T05:42:52;5.35;;;3.25;;
59998;SDS011;45859;51.378;6.736;2023-08-06T05:45:19;4.35;;;3.20;;
59998;SDS011;45859;51.378;6.736;2023-08-06T05:47:44;7.43;;;3.33;;
59998;SDS011;45859;51.378;6.736;2023-08-06T05:50:10;6.43;;;3.83;;
59998;SDS011;45859;51.378;6.736;2023-08-06T05:52:36;4.73;;;3.13;;
59998;SDS011;45859;51.378;6.736;2023-08-06T05:55:02;6.00;;;3.10;;
59998;SDS011;45859;51.378;6.736;2023-08-06T05:57:28;3.72;;;3.03;;
59998;SDS011;45859;51.378;6.736;2023-08-06T05:59:54;5.15;;;3.15;;
59998;SDS011;45859;51.378;6.736;2023-08-06T06:02:19;6.18;;;3.15;;
59998;SDS011;45859;51.378;6.736;2023-08-06T06:04:45;5.15;;;3.75;;
59998;SDS011;45859;51.378;6.736;2023-08-06T06:07:11;4.05;;;3.38;;
59998;SDS011;45859;51.378;6.736;2023-08-06T06:09:36;3.72;;;3.20;;
59998;SDS011;45859;51.378;6.736;2023-08-06T06:12:04;3.50;;;3.03;;
59998;SDS011;45859;51.378;6.736;2023-08-06T06:14:30;4.85;;;4.13;;
59998;SDS011;45859;51.378;6.736;2023-08-06T06:16:56;3.97;;;3.38;;
59998;SDS011;45859;51.378;6.736;2023-08-06T06:19:22;4.25;;;3.85;;
59998;SDS011;45859;51.378;6.736;2023-08-06T06:21:48;3.90;;;3.22;;
59998;SDS011;45859;51.378;6.736;2023-08-06T06:24:13;3.03;;;2.80;;
59998;SDS011;45859;51.378;6.736;2023-08-06T06:26:39;4.35;;;2.67;;
59998;SDS011;45859;51.378;6.736;2023-08-06T06:29:05;3.38;;;2.85;;
59998;SDS011;45859;51.378;6.736;2023-08-06T06:31:30;4.03;;;3.17;;
59998;SDS011;45859;51.378;6.736;2023-08-06T06:33:56;4.70;;;3.08;;
59998;SDS011;45859;51.378;6.736;2023-08-06T06:36:22;4.53;;;3.28;;
59998;SDS011;45859;51.378;6.736;2023-08-06T06:38:48;3.35;;;3.05;;
59998;SDS011;45859;51.378;6.736;2023-08-06T06:41:14;3.78;;;3.00;;
59998;SDS011;45859;51.378;6.736;2023-08-06T06:43:42;3.95;;;3.33;;
59998;SDS011;45859;51.378;6.736;2023-08-06T06:46:09;4.15;;;3.50;;
59998;SDS011;45859;51.378;6.736;2023-08-06T06:48:35;4.88;;;3.65;;
59998;SDS011;45859;51.378;6.736;2023-08-06T06:51:01;4.88;;;3.72;;
59998;SDS011;45859;51.378;6.736;2023-08-06T06:53:26;4.88;;;3.67;;
59998;SDS011;45859;51.378;6.736;2023-08-06T06:56:10;4.28;;;3.08;;
59998;SDS011;45859;51.378;6.736;2023-08-06T06:58:36;4.47;;;3.00;;
59998;SDS011;45859;51.378;6.736;2023-08-06T07:01:03;3.72;;;2.55;;
59998;SDS011;45859;51.378;6.736;2023-08-06T07:03:29;3.28;;;2.78;;
59998;SDS011;45859;51.378;6.736;2023-08-06T07:05:58;3.65;;;2.40;;
59998;SDS011;45859;51.378;6.736;2023-08-06T07:08:24;3.57;;;2.87;;
59998;SDS011;45859;51.378;6.736;2023-08-06T07:10:50;3.63;;;2.47;;
59998;SDS011;45859;51.378;6.736;2023-08-06T07:13:24;4.20;;;2.10;;
59998;SDS011;45859;51.378;6.736;2023-08-06T07:15:49;4.50;;;3.03;;
59998;SDS011;45859;51.378;6.736;2023-08-06T07:18:15;4.85;;;3.33;;
59998;SDS011;45859;51.378;6.736;2023-08-06T07:20:41;4.20;;;3.60;;
59998;SDS011;45859;51.378;6.736;2023-08-06T07:23:06;5.70;;;3.20;;
59998;SDS011;45859;51.378;6.736;2023-08-06T07:25:32;6.28;;;2.35;;
59998;SDS011;45859;51.378;6.736;2023-08-06T07:27:58;6.18;;;3.22;;
59998;SDS011;45859;51.378;6.736;2023-08-06T07:30:24;4.78;;;2.97;;
59998;SDS011;45859;51.378;6.736;2023-08-06T07:32:49;5.05;;;2.38;;
59998;SDS011;45859;51.378;6.736;2023-08-06T07:35:15;4.40;;;2.20;;
59998;SDS011;45859;51.378;6.736;2023-08-06T07:37:41;2.95;;;2.30;;
59998;SDS011;45859;51.378;6.736;2023-08-06T07:40:06;3.17;;;2.63;;
59998;SDS011;45859;51.378;6.736;2023-08-06T07:42:32;4.35;;;2.58;;
59998;SDS011;45859;51.378;6.736;2023-08-06T07:44:58;3.47;;;2.63;;
59998;SDS011;45859;51.378;6.736;2023-08-06T07:47:24;3.78;;;3.25;;
59998;SDS011;45859;51.378;6.736;2023-08-06T07:49:50;5.72;;;3.35;;
59998;SDS011;45859;51.378;6.736;2023-08-06T07:52:17;3.15;;;2.85;;
59998;SDS011;45859;51.378;6.736;2023-08-06T07:54:42;3.65;;;2.90;;
59998;SDS011;45859;51.378;6.736;2023-08-06T07:57:08;2.65;;;2.25;;
59998;SDS011;45859;51.378;6.736;2023-08-06T07:59:34;3.67;;;2.70;;
59998;SDS011;45859;51.378;6.736;2023-08-06T08:02:00;6.68;;;2.70;;
59998;SDS011;45859;51.378;6.736;2023-08-06T08:04:26;3.05;;;2.47;;
59998;SDS011;45859;51.378;6.736;2023-08-06T08:06:51;7.65;;;2.78;;
59998;SDS011;45859;51.378;6.736;2023-08-06T08:09:17;3.78;;;2.67;;
59998;SDS011;45859;51.378;6.736;2023-08-06T08:11:43;4.05;;;2.42;;
59998;SDS011;45859;51.378;6.736;2023-08-06T08:14:09;3.95;;;2.22;;
59998;SDS011;45859;51.378;6.736;2023-08-06T08:16:35;2.97;;;2.55;;
59998;SDS011;45859;51.378;6.736;2023-08-06T08:19:01;3.90;;;3.58;;
59998;SDS011;45859;51.378;6.736;2023-08-06T08:21:28;3.60;;;3.30;;
59998;SDS011;45859;51.378;6.736;2023-08-06T08:23:53;3.90;;;3.40;;
59998;SDS011;45859;51.378;6.736;2023-08-06T08:26:19;5.15;;;3.60;;
59998;SDS011;45859;51.378;6.736;2023-08-06T08:28:45;4.65;;;3.40;;
59998;SDS011;45859;51.378;6.736;2023-08-06T08:31:11;3.50;;;3.20;;
59998;SDS011;45859;51.378;6.736;2023-08-06T08:33:39;3.92;;;3.38;;
59998;SDS011;45859;51.378;6.736;2023-08-06T08:36:05;4.15;;;3.75;;
59998;SDS011;45859;51.378;6.736;2023-08-06T08:38:31;3.20;;;2.90;;
59998;SDS011;45859;51.378;6.736;2023-08-06T08:40:57;4.30;;;3.70;;
59998;SDS011;45859;51.378;6.736;2023-08-06T08:43:22;4.00;;;3.70;;
59998;SDS011;45859;51.378;6.736;2023-08-06T08:45:52;4.68;;;3.80;;
59998;SDS011;45859;51.378;6.736;2023-08-06T08:48:25;4.13;;;3.55;;
59998;SDS011;45859;51.378;6.736;2023-08-06T08:50:52;4.80;;;3.67;;
59998;SDS011;45859;51.378;6.736;2023-08-06T08:53:18;3.83;;;3.53;;
59998;SDS011;45859;51.378;6.736;2023-08-06T08:55:46;3.80;;;3.50;;
59998;SDS011;45859;51.378;6.736;2023-08-06T08:58:13;4.28;;;3.58;;
59998;SDS011;45859;51.378;6.736;2023-08-06T09:00:43;3.88;;;3.40;;
59998;SDS011;45859;51.378;6.736;2023-08-06T09:03:13;3.88;;;3.33;;
59998;SDS011;45859;51.378;6.736;2023-08-06T09:05:41;3.85;;;3.10;;
59998;SDS011;45859;51.378;6.736;2023-08-06T09:08:10;3.47;;;2.60;;
59998;SDS011;45859;51.378;6.736;2023-08-06T09:10:39;2.60;;;2.40;;
59998;SDS011;45859;51.378;6.736;2023-08-06T09:13:06;3.67;;;2.47;;
59998;SDS011;45859;51.378;6.736;2023-08-06T09:15:31;2.42;;;2.20;;
59998;SDS011;45859;51.378;6.736;2023-08-06T09:17:58;3.70;;;2.65;;
59998;SDS011;45859;51.378;6.736;2023-08-06T09:20:24;3.97;;;2.40;;
59998;SDS011;45859;51.378;6.736;2023-08-06T09:22:52;2.58;;;2.38;;
59998;SDS011;45859;51.378;6.736;2023-08-06T09:25:22;4.72;;;2.50;;
59998;SDS011;45859;51.378;6.736;2023-08-06T09:27:49;3.80;;;2.30;;
59998;SDS011;45859;51.378;6.736;2023-08-06T09:30:50;4.18;;;2.00;;
59998;SDS011;45859;51.378;6.736;2023-08-06T09:33:08;2.30;;;1.90;;
59998;SDS011;45859;51.378;6.736;2023-08-06T09:35:39;4.10;;;1.90;;
59998;SDS011;45859;51.378;6.736;2023-08-06T09:38:05;2.67;;;1.95;;
59998;SDS011;45859;51.378;6.736;2023-08-06T09:40:32;3.20;;;1.60;;
59998;SDS011;45859;51.378;6.736;2023-08-06T09:42:58;2.60;;;1.50;;
59998;SDS011;45859;51.378;6.736;2023-08-06T09:45:34;3.53;;;1.52;;
59998;SDS011;45859;51.378;6.736;2023-08-06T09:48:05;4.07;;;2.03;;
59998;SDS011;45859;51.378;6.736;2023-08-06T09:50:39;3.20;;;2.10;;
59998;SDS011;45859;51.378;6.736;2023-08-06T09:53:07;4.00;;;2.05;;
59998;SDS011;45859;51.378;6.736;2023-08-06T09:55:33;3.60;;;2.10;;
59998;SDS011;45859;51.378;6.736;2023-08-06T09:57:59;3.08;;;1.92;;
59998;SDS011;45859;51.378;6.736;2023-08-06T10:00:25;5.18;;;2.35;;
59998;SDS011;45859;51.378;6.736;2023-08-06T10:02:52;3.67;;;2.50;;
59998;SDS011;45859;51.378;6.736;2023-08-06T10:05:22;3.45;;;2.10;;
59998;SDS011;45859;51.378;6.736;2023-08-06T10:07:48;5.43;;;2.67;;
59998;SDS011;45859;51.378;6.736;2023-08-06T10:10:16;8.48;;;5.70;;
59998;SDS011;45859;51.378;6.736;2023-08-06T10:12:46;6.32;;;5.68;;
59998;SDS011;45859;51.378;6.736;2023-08-06T10:15:17;5.05;;;4.57;;
59998;SDS011;45859;51.378;6.736;2023-08-06T10:17:49;6.60;;;5.90;;
59998;SDS011;45859;51.378;6.736;2023-08-06T10:20:17;7.75;;;7.05;;
59998;SDS011;45859;51.378;6.736;2023-08-06T10:22:46;9.38;;;6.78;;
59998;SDS011;45859;51.378;6.736;2023-08-06T10:25:24;7.20;;;6.03;;
59998;SDS011;45859;51.378;6.736;2023-08-06T10:32:50;5.25;;;4.75;;
59998;SDS011;45859;51.378;6.736;2023-08-06T10:40:33;6.68;;;5.45;;
59998;SDS011;45859;51.378;6.736;2023-08-06T10:42:59;6.03;;;5.32;;
59998;SDS011;45859;51.378;6.736;2023-08-06T10:45:26;5.10;;;4.50;;
59998;SDS011;45859;51.378;6.736;2023-08-06T10:47:54;3.90;;;3.50;;
59998;SDS011;45859;51.378;6.736;2023-08-06T10:50:23;1.37;;;1.20;;
59998;SDS011;45859;51.378;6.736;2023-08-06T10:52:50;1.77;;;0.93;;
59998;SDS011;45859;51.378;6.736;2023-08-06T10:55:26;4.40;;;1.73;;
59998;SDS011;45859;51.378;6.736;2023-08-06T10:57:54;4.83;;;1.63;;
59998;SDS011;45859;51.378;6.736;2023-08-06T11:00:21;1.63;;;1.53;;
59998;SDS011;45859;51.378;6.736;2023-08-06T11:02:48;2.00;;;1.80;;
59998;SDS011;45859;51.378;6.736;2023-08-06T11:05:15;1.80;;;1.70;;
59998;SDS011;45859;51.378;6.736;2023-08-06T11:07:41;2.10;;;1.90;;
59998;SDS011;45859;51.378;6.736;2023-08-06T11:10:08;3.30;;;2.23;;
59998;SDS011;45859;51.378;6.736;2023-08-06T11:12:38;4.35;;;3.08;;
59998;SDS011;45859;51.378;6.736;2023-08-06T11:15:04;3.97;;;2.80;;
59998;SDS011;45859;51.378;6.736;2023-08-06T11:17:32;6.13;;;2.63;;
59998;SDS011;45859;51.378;6.736;2023-08-06T11:20:02;4.07;;;2.37;;
59998;SDS011;45859;51.378;6.736;2023-08-06T11:22:29;3.23;;;2.87;;
59998;SDS011;45859;51.378;6.736;2023-08-06T11:24:55;3.57;;;3.10;;
59998;SDS011;45859;51.378;6.736;2023-08-06T11:27:21;4.57;;;3.50;;
59998;SDS011;45859;51.378;6.736;2023-08-06T11:29:47;3.83;;;3.53;;
59998;SDS011;45859;51.378;6.736;2023-08-06T11:32:13;3.73;;;3.43;;
59998;SDS011;45859;51.378;6.736;2023-08-06T11:34:39;4.83;;;2.97;;
59998;SDS011;45859;51.378;6.736;2023-08-06T11:37:06;4.33;;;3.80;;
59998;SDS011;45859;51.378;6.736;2023-08-06T11:39:32;3.90;;;3.47;;
59998;SDS011;45859;51.378;6.736;2023-08-06T11:41:59;5.93;;;4.07;;
59998;SDS011;45859;51.378;6.736;2023-08-06T11:44:29;4.00;;;3.60;;
59998;SDS011;45859;51.378;6.736;2023-08-06T11:46:56;5.33;;;4.40;;
59998;SDS011;45859;51.378;6.736;2023-08-06T11:52:25;3.60;;;3.07;;
59998;SDS011;45859;51.378;6.736;2023-08-06T11:55:04;4.50;;;3.00;;
59998;SDS011;45859;51.378;6.736;2023-08-06T11:57:37;5.07;;;2.70;;
59998;SDS011;45859;51.378;6.736;2023-08-06T12:00:09;2.40;;;2.20;;
59998;SDS011;45859;51.378;6.736;2023-08-06T12:02:36;2.13;;;2.00;;
59998;SDS011;45859;51.378;6.736;2023-08-06T12:05:04;2.27;;;2.07;;
59998;SDS011;45859;51.378;6.736;2023-08-06T12:07:38;2.57;;;2.37;;
59998;SDS011;45859;51.378;6.736;2023-08-06T12:10:09;2.47;;;2.10;;
59998;SDS011;45859;51.378;6.736;2023-08-06T12:12:35;2.03;;;1.83;;
59998;SDS011;45859;51.378;6.736;2023-08-06T12:15:02;2.50;;;2.30;;
59998;SDS011;45859;51.378;6.736;2023-08-06T12:17:28;2.67;;;2.47;;
59998;SDS011;45859;51.378;6.736;2023-08-06T12:19:54;2.53;;;2.33;;
59998;SDS011;45859;51.378;6.736;2023-08-06T12:22:20;3.13;;;2.90;;
59998;SDS011;45859;51.378;6.736;2023-08-06T12:24:46;3.20;;;2.90;;
59998;SDS011;45859;51.378;6.736;2023-08-06T12:27:13;3.80;;;3.27;;
59998;SDS011;45859;51.378;6.736;2023-08-06T12:29:43;3.37;;;3.07;;
59998;SDS011;45859;51.378;6.736;2023-08-06T12:32:11;4.30;;;3.90;;
59998;SDS011;45859;51.378;6.736;2023-08-06T12:34:41;6.33;;;4.80;;
59998;SDS011;45859;51.378;6.736;2023-08-06T12:37:07;4.40;;;2.80;;
59998;SDS011;45859;51.378;6.736;2023-08-06T12:39:37;5.57;;;5.07;;
59998;SDS011;45859;51.378;6.736;2023-08-06T12:42:03;5.20;;;4.70;;
59998;SDS011;45859;51.378;6.736;2023-08-06T12:44:30;4.00;;;3.70;;
59998;SDS011;45859;51.378;6.736;2023-08-06T12:46:56;4.17;;;3.87;;
59998;SDS011;45859;51.378;6.736;2023-08-06T12:49:22;4.13;;;3.73;;
59998;SDS011;45859;51.378;6.736;2023-08-06T12:51:48;5.10;;;4.50;;
59998;SDS011;45859;51.378;6.736;2023-08-06T12:54:15;5.27;;;4.77;;
59998;SDS011;45859;51.378;6.736;2023-08-06T12:56:42;5.23;;;4.73;;
59998;SDS011;45859;51.378;6.736;2023-08-06T12:59:08;5.47;;;4.53;;
59998;SDS011;45859;51.378;6.736;2023-08-06T13:01:34;4.10;;;3.70;;
59998;SDS011;45859;51.378;6.736;2023-08-06T13:03:59;4.23;;;3.60;;
59998;SDS011;45859;51.378;6.736;2023-08-06T13:06:26;4.37;;;3.93;;
59998;SDS011;45859;51.378;6.736;2023-08-06T13:08:51;3.67;;;3.37;;
59998;SDS011;45859;51.378;6.736;2023-08-06T13:11:17;3.33;;;2.87;;
59998;SDS011;45859;51.378;6.736;2023-08-06T13:13:44;5.43;;;4.40;;
59998;SDS011;45859;51.378;6.736;2023-08-06T13:16:09;4.17;;;3.43;;
59998;SDS011;45859;51.378;6.736;2023-08-06T13:18:35;3.17;;;2.80;;
59998;SDS011;45859;51.378;6.736;2023-08-06T13:21:01;4.50;;;3.33;;
59998;SDS011;45859;51.378;6.736;2023-08-06T13:23:26;5.13;;;3.70;;
59998;SDS011;45859;51.378;6.736;2023-08-06T13:25:53;5.07;;;3.77;;
59998;SDS011;45859;51.378;6.736;2023-08-06T13:28:19;3.87;;;3.40;;
59998;SDS011;45859;51.378;6.736;2023-08-06T13:30:45;4.70;;;3.40;;
59998;SDS011;45859;51.378;6.736;2023-08-06T13:33:11;5.23;;;3.40;;
59998;SDS011;45859;51.378;6.736;2023-08-06T13:35:37;3.23;;;2.90;;
59998;SDS011;45859;51.378;6.736;2023-08-06T13:38:03;3.40;;;3.10;;
59998;SDS011;45859;51.378;6.736;2023-08-06T13:40:29;3.40;;;3.10;;
59998;SDS011;45859;51.378;6.736;2023-08-06T13:42:57;4.17;;;3.70;;
59998;SDS011;45859;51.378;6.736;2023-08-06T13:45:23;3.37;;;2.80;;
59998;SDS011;45859;51.378;6.736;2023-08-06T13:47:49;4.83;;;2.83;;
59998;SDS011;45859;51.378;6.736;2023-08-06T13:50:15;2.93;;;2.63;;
59998;SDS011;45859;51.378;6.736;2023-08-06T13:52:41;5.30;;;2.90;;
59998;SDS011;45859;51.378;6.736;2023-08-06T13:55:06;2.87;;;2.50;;
59998;SDS011;45859;51.378;6.736;2023-08-06T13:57:34;3.90;;;3.23;;
59998;SDS011;45859;51.378;6.736;2023-08-06T13:59:59;3.55;;;2.80;;
59998;SDS011;45859;51.378;6.736;2023-08-06T14:02:26;5.50;;;3.13;;
59998;SDS011;45859;51.378;6.736;2023-08-06T14:04:52;6.93;;;3.50;;
59998;SDS011;45859;51.378;6.736;2023-08-06T14:07:18;5.20;;;3.43;;
59998;SDS011;45859;51.378;6.736;2023-08-06T14:09:44;4.87;;;3.10;;
59998;SDS011;45859;51.378;6.736;2023-08-06T14:12:09;3.70;;;3.20;;
59998;SDS011;45859;51.378;6.736;2023-08-06T14:14:35;4.10;;;3.00;;
59998;SDS011;45859;51.378;6.736;2023-08-06T14:17:01;5.33;;;3.50;;
59998;SDS011;45859;51.378;6.736;2023-08-06T14:19:27;3.43;;;3.03;;
59998;SDS011;45859;51.378;6.736;2023-08-06T14:21:53;5.03;;;3.27;;
59998;SDS011;45859;51.378;6.736;2023-08-06T14:24:20;5.00;;;3.23;;
59998;SDS011;45859;51.378;6.736;2023-08-06T14:26:46;3.97;;;2.93;;
59998;SDS011;45859;51.378;6.736;2023-08-06T14:29:12;4.33;;;2.77;;
59998;SDS011;45859;51.378;6.736;2023-08-06T14:31:38;4.33;;;3.00;;
59998;SDS011;45859;51.378;6.736;2023-08-06T14:34:05;3.57;;;3.00;;
59998;SDS011;45859;51.378;6.736;2023-08-06T14:36:31;3.13;;;2.33;;
59998;SDS011;45859;51.378;6.736;2023-08-06T14:38:56;4.43;;;2.60;;
59998;SDS011;45859;51.378;6.736;2023-08-06T14:41:22;2.95;;;2.03;;
59998;SDS011;45859;51.378;6.736;2023-08-06T14:43:49;3.85;;;2.70;;
59998;SDS011;45859;51.378;6.736;2023-08-06T14:46:15;1.88;;;1.77;;
59998;SDS011;45859;51.378;6.736;2023-08-06T14:48:40;2.50;;;2.17;;
59998;SDS011;45859;51.378;6.736;2023-08-06T14:51:07;2.58;;;1.88;;
59998;SDS011;45859;51.378;6.736;2023-08-06T14:53:33;3.45;;;2.17;;
59998;SDS011;45859;51.378;6.736;2023-08-06T14:55:59;2.97;;;1.90;;
59998;SDS011;45859;51.378;6.736;2023-08-06T14:58:25;3.33;;;1.60;;
59998;SDS011;45859;51.378;6.736;2023-08-06T15:00:51;2.78;;;1.67;;
59998;SDS011;45859;51.378;6.736;2023-08-06T15:03:16;2.72;;;1.65;;